Aviation Digital Data Service (ADDS)

Output produced by METARs form (1324 UTC 08 May 2021)
found at http://aviationweather.gov/metar/data/
 
KHKS 081253Z 13006KT 10SM CLR 16/10 A3012 RMK AO2 SLP192 T01610100
KHKS 081120Z 0812/0912 16010KT P6SM SCT150 
     FM090500 17010KT P6SM FEW015 SCT150 WS015/19035KT